Latest Weather Observations for Bradshaw

IDD60801

Issued at 7:31 pm CST Monday 17 December 2018 (issued every 10 minutes, with the page automatically refreshed every 10 minutes)

About weather observations | Map of weather stations | Latest weather observations for NT | Other Formats
Station Details ID: 014954 Name: BRADSHAW Lat: -14.94 Lon: 130.81 Height: 75.0 m
Data from the previous 72 hours. | See also: Recent months at Bradshaw
Date/Time
CST
Temp
°C
App
Temp
°C
Dew
Point
°C
Rel
Hum
%
Delta-T
°C
Wind Press
QNH
hPa
Press
MSL
hPa
Rain since
9am
mm
Dir  Spd
km/h
Gust
km/h
Spd
kts
Gust
kts
17/07:30pm 32.3 33.9 19.9 48 8.2 W 11 17 6 9 1005.2 - 0.0
17/07:00pm 32.8 37.3 23.7 58 6.3 NW 6 9 3 5 1005.0 - 0.0
17/06:30pm 33.4 37.4 23.7 56 6.8 NW 9 13 5 7 1004.5 - 0.0
17/06:00pm 33.2 34.1 22.6 53 7.3 W 22 32 12 17 1003.6 1003.1 0.0
17/05:30pm 37.0 39.7 23.4 45 9.5 NNE 15 20 8 11 1002.9 - 0.0
17/05:00pm 37.8 40.5 23.4 43 10.1 N 15 20 8 11 1003.0 - 0.0
17/04:30pm 38.2 41.2 22.6 40 10.9 NNE 11 20 6 11 1003.3 - 0.0
17/04:00pm 38.3 41.2 23.1 41 10.6 N 13 22 7 12 1003.5 - 0.0
17/03:30pm 38.5 41.6 22.9 40 10.9 NNW 11 19 6 10 1003.7 - 0.0
17/03:00pm 38.4 41.3 23.2 41 10.7 WNW 13 20 7 11 1004.1 1003.6 0.0
17/02:30pm 37.7 41.3 23.0 43 10.3 NNW 9 17 5 9 1004.5 - 0.0
17/02:00pm 38.3 41.4 23.5 42 10.4 N 13 22 7 12 1004.9 - 0.0
17/01:30pm 36.9 41.1 23.4 46 9.5 NNW 7 13 4 7 1005.4 - 0.0
17/01:00pm 36.7 40.5 23.5 46 9.3 NNW 9 17 5 9 1005.8 - 0.0
17/12:30pm 34.8 38.6 23.5 52 7.9 N 9 17 5 9 1006.2 - 0.0
17/12:00pm 33.8 37.1 23.8 56 7.0 NNE 13 20 7 11 1006.5 1006.0 0.0
17/11:30am 33.6 38.0 24.5 59 6.4 NNW 9 17 5 9 1007.0 - 0.0
17/11:00am 33.2 37.2 24.4 60 6.2 NNW 11 20 6 11 1007.2 - 0.0
17/10:30am 32.3 36.0 24.6 64 5.4 NNW 13 19 7 10 1007.5 - 0.0
17/10:00am 31.1 34.8 24.5 68 4.6 N 13 17 7 9 1008.0 - 0.0
17/09:30am 30.8 34.7 24.9 71 4.2 N 13 19 7 10 1008.2 - 0.0
17/09:00am 30.2 34.1 24.8 73 3.8 N 13 17 7 9 1008.1 1007.5 3.2
17/08:30am 29.8 34.4 25.3 77 3.2 NNE 11 17 6 9 1007.9 - 3.0
17/08:00am 29.2 33.7 25.2 79 2.8 NNE 11 15 6 8 1007.7 - 3.0
17/07:30am 28.7 33.4 24.9 80 2.7 NNE 9 15 5 8 1007.6 - 3.0
17/07:00am 28.3 32.6 24.9 82 2.4 NE 11 17 6 9 1007.5 - 3.0
17/06:30am 28.0 31.9 24.8 83 2.2 ENE 13 17 7 9 1007.2 - 3.0
17/06:00am 27.8 31.3 24.8 84 2.1 NE 15 20 8 11 1006.6 1006.1 3.0
17/05:30am 27.9 32.3 25.1 85 2.0 NE 11 17 6 9 1006.6 - 3.0
17/05:00am 28.0 33.3 25.0 84 2.1 N 6 9 3 5 1006.3 - 3.0
17/04:30am 28.2 33.4 24.8 82 2.4 N 6 7 3 4 1006.4 - 3.0
17/04:00am 28.2 34.3 25.0 83 2.2 N 2 6 1 3 1006.3 - 3.0
17/03:30am 28.3 34.1 25.1 83 2.2 N 4 7 2 4 1006.6 - 3.0
17/03:00am 28.2 32.7 25.2 84 2.1 ENE 11 15 6 8 1006.7 1006.2 3.0
17/02:30am 28.2 32.7 25.2 84 2.1 NE 11 13 6 7 1006.3 - 3.0
17/02:00am 28.4 33.4 24.8 81 2.5 NNE 7 9 4 5 1006.4 - 3.0
17/01:30am 28.4 33.6 24.8 81 2.5 N 6 9 3 5 1006.4 - 3.0
17/01:00am 28.2 32.9 25.0 83 2.2 N 9 11 5 6 1005.9 - 3.0
17/12:30am 28.8 33.9 25.0 80 2.7 N 7 11 4 6 1007.2 - 3.0
17/12:00am 29.2 33.9 25.0 78 3.0 N 9 11 5 6 1007.5 1006.9 3.0
 
Date/Time
CST
Temp
°C
App
Temp
°C
Dew
Point
°C
Rel
Hum
%
Delta-T
°C
Wind Press
QNH
hPa
Press
MSL
hPa
Rain since
9am
mm
Dir  Spd
km/h
Gust
km/h
Spd
kts
Gust
kts
16/11:30pm 29.6 34.5 24.7 75 3.4 NNW 7 15 4 8 1007.3 - 3.0
16/11:00pm 30.0 34.7 24.9 74 3.6 NW 9 15 5 8 1007.4 - 3.0
16/10:30pm 30.1 35.0 25.2 75 3.5 SW 9 13 5 7 1007.4 - 3.0
16/10:00pm 29.8 35.8 24.9 75 3.4 WNW 2 9 1 5 1006.6 - 3.0
16/09:30pm 29.7 34.1 23.4 69 4.3 NNW 6 9 3 5 1006.9 - 3.0
16/09:00pm 30.2 33.2 22.6 63 5.2 WNW 11 19 6 10 1006.6 1006.1 3.0
16/08:30pm 29.7 33.5 22.4 65 5.0 W 6 13 3 7 1006.0 - 3.0
16/08:00pm 29.4 31.6 21.1 61 5.5 N 11 19 6 10 1005.4 - 3.0
16/07:30pm 29.8 29.5 20.4 57 6.2 N 22 35 12 19 1005.4 - 3.0
16/07:00pm 29.5 32.9 21.7 63 5.3 NW 6 15 3 8 1004.5 - 3.0
16/06:30pm 28.1 31.3 23.0 74 3.5 N 11 43 6 23 1004.1 - 3.0
16/06:00pm 29.8 31.3 23.0 67 4.7 N 20 30 11 16 1004.1 1003.6 0.8
16/05:30pm 34.0 33.1 20.7 45 8.9 NNE 26 41 14 22 1003.4 - 0.4
16/05:00pm 38.1 41.8 25.2 48 9.3 WNW 15 22 8 12 1003.1 - 0.2
16/04:30pm 36.0 39.7 23.9 49 8.5 SE 11 20 6 11 1003.4 - 0.2
16/04:00pm 35.9 40.3 26.3 57 6.9 WSW 15 26 8 14 1003.7 - 0.2
16/03:30pm 38.1 41.7 24.4 45 9.7 WNW 13 17 7 9 1004.1 - 0.0
16/03:00pm 37.7 41.1 24.1 45 9.6 WNW 13 22 7 12 1004.4 1003.9 0.0
16/02:30pm 37.7 40.6 24.4 46 9.4 NW 17 24 9 13 1004.7 - 0.0
16/02:00pm 37.4 39.9 24.5 47 9.2 WNW 19 24 10 13 1005.0 - 0.0
16/01:30pm 37.4 40.7 24.5 47 9.2 NNW 15 24 8 13 1005.4 - 0.0
16/01:00pm 37.1 40.2 24.2 47 9.1 N 15 22 8 12 1005.7 - 0.0
16/12:30pm 36.0 39.2 24.3 51 8.3 NNW 15 24 8 13 1006.2 - 0.0
16/12:00pm 35.6 38.9 23.9 51 8.2 NNW 13 19 7 10 1006.5 1006.0 0.0
16/11:30am 34.5 37.6 24.1 54 7.3 NNW 15 24 8 13 1007.0 - 0.0
16/11:00am 33.7 37.1 24.6 59 6.4 NW 15 20 8 11 1007.2 - 0.0
16/10:30am 32.7 35.6 24.5 62 5.8 NNW 17 20 9 11 1007.7 - 0.0
16/10:00am 32.0 35.2 24.3 63 5.4 NNW 15 22 8 12 1007.7 - 0.0
16/09:30am 31.3 34.4 24.2 66 5.0 NW 15 24 8 13 1007.8 - 0.0
16/09:00am 30.3 33.3 24.0 69 4.4 NW 15 20 8 11 1008.0 1007.4 8.6
16/08:30am 29.5 33.3 24.1 72 3.8 NNW 11 17 6 9 1007.8 - 8.6
16/08:00am 28.7 32.6 22.9 71 4.0 N 7 11 4 6 1007.7 - 8.6
16/07:30am 27.9 30.9 22.6 73 3.6 NNW 11 17 6 9 1007.4 - 8.6
16/07:00am 27.2 29.3 22.4 75 3.2 NNW 15 24 8 13 1006.5 - 8.6
16/06:30am 26.7 27.8 22.3 77 3.0 NNW 20 28 11 15 1006.3 - 8.6
16/06:00am 26.6 28.2 22.2 77 3.0 N 17 24 9 13 1006.5 1006.0 8.6
16/05:30am 26.3 28.9 22.6 80 2.5 N 13 15 7 8 1006.9 - 8.6
16/05:00am 25.5 29.6 23.2 87 1.6 NNW 7 11 4 6 1007.0 - 8.6
16/04:30am 25.4 29.3 22.9 86 1.7 WNW 7 9 4 5 1007.0 - 8.6
16/04:00am 25.7 30.8 22.6 83 2.1 CALM 0 0 0 0 1007.1 - 8.6
16/03:30am 25.7 28.4 22.2 81 2.4 WSW 11 15 6 8 1007.1 - 8.6
16/03:00am 26.1 26.4 21.5 76 3.1 S 22 35 12 19 1006.9 1006.3 8.6
16/02:30am 26.9 29.8 20.7 69 4.1 N 6 11 3 6 1005.0 - 8.6
16/02:00am 26.7 28.3 20.8 70 3.9 N 13 19 7 10 1004.8 - 8.6
16/01:30am 26.7 28.1 21.0 71 3.8 N 15 24 8 13 1004.6 - 8.6
16/01:00am 25.9 26.4 21.1 75 3.2 N 20 28 11 15 1004.6 - 8.6
16/12:30am 25.5 27.1 21.4 78 2.7 NNW 15 20 8 11 1005.4 - 8.6
16/12:00am 25.9 29.6 23.2 85 1.8 NE 9 15 5 8 1006.5 1006.0 8.6
 
Date/Time
CST
Temp
°C
App
Temp
°C
Dew
Point
°C
Rel
Hum
%
Delta-T
°C
Wind Press
QNH
hPa
Press
MSL
hPa
Rain since
9am
mm
Dir  Spd
km/h
Gust
km/h
Spd
kts
Gust
kts
15/11:30pm 26.1 29.4 22.6 81 2.4 W 9 15 5 8 1006.9 - 8.6
15/11:00pm 25.6 29.7 22.9 85 1.8 SW 6 17 3 9 1007.6 - 8.6
15/10:30pm 25.6 26.3 22.3 82 2.2 NE 22 32 12 17 1007.3 - 8.6
15/10:16pm 24.9 26.4 23.0 89 1.3 NE 20 35 11 19 1008.0 - 8.6
15/10:00pm 23.9 21.9 22.5 92 0.9 E 37 54 20 29 1008.0 - 8.6
15/09:53pm 24.3 21.5 23.1 93 0.8 E 43 54 23 29 1008.5 - 8.4
15/09:30pm 27.4 25.5 21.0 68 4.2 S 32 50 17 27 1008.6 - 0.0
15/09:13pm 31.1 29.8 20.7 54 6.9 SW 28 50 15 27 1007.5 - 0.0
15/09:00pm 32.3 34.9 24.6 64 5.4 W 19 24 10 13 1006.0 1005.5 0.0
15/08:30pm 32.7 35.4 24.7 62 5.6 NW 19 28 10 15 1005.2 - 0.0
15/08:00pm 33.5 36.4 24.4 59 6.4 NNW 17 28 9 15 1004.4 - 0.0
15/07:30pm 34.2 37.5 24.5 57 6.8 NW 15 24 8 13 1003.9 - 0.0
15/07:00pm 34.9 37.4 24.5 54 7.4 NW 19 28 10 15 1003.4 - 0.0
15/06:30pm 36.0 38.2 23.9 49 8.5 NNW 19 28 10 15 1002.9 - 0.0
15/06:00pm 37.0 38.9 23.4 45 9.6 NNW 19 30 10 16 1002.3 1001.7 0.0
15/05:30pm 37.2 38.8 23.3 45 9.7 WNW 20 30 11 16 1002.1 - 0.0
15/05:00pm 37.6 39.3 24.0 45 9.6 NW 22 30 12 16 1002.0 - 0.0
15/04:30pm 38.8 41.3 23.2 41 10.9 NNW 15 22 8 12 1002.1 - 0.0
15/04:00pm 37.9 39.8 23.5 43 10.1 WNW 19 24 10 13 1002.5 - 0.0
15/03:30pm 38.2 40.2 23.0 41 10.6 N 17 24 9 13 1002.9 - 0.0
15/03:00pm 37.7 40.0 24.1 45 9.7 NW 19 28 10 15 1003.2 1002.7 0.0
15/02:30pm 37.5 39.8 23.5 44 9.8 NW 17 26 9 14 1003.5 - 0.0
15/02:00pm 37.3 40.5 24.4 47 9.2 NNW 15 22 8 12 1003.8 - 0.0
15/01:30pm 37.3 40.8 24.8 49 8.9 NW 15 24 8 13 1004.3 - 0.0
15/01:00pm 35.7 38.9 24.3 51 8.1 NW 15 24 8 13 1004.9 - 0.0
15/12:30pm 35.5 39.4 24.8 54 7.6 NNW 13 24 7 13 1005.5 - 0.0
15/12:00pm 35.3 38.7 25.2 56 7.2 WNW 17 22 9 12 1006.0 1005.5 0.0
15/11:30am 34.2 38.2 25.0 58 6.5 NNW 13 20 7 11 1006.5 - 0.0
15/11:00am 33.3 36.5 25.0 61 5.9 WNW 17 24 9 13 1006.9 - 0.0
15/10:30am 32.9 36.6 25.2 64 5.5 NW 15 20 8 11 1007.0 - 0.0
15/10:00am 31.8 36.4 25.4 69 4.5 NNW 11 19 6 10 1007.1 - 0.0
15/09:30am 31.5 36.0 25.8 72 4.1 NW 13 20 7 11 1007.2 - 0.0
15/09:00am 30.4 35.6 25.7 76 3.3 NNW 9 19 5 10 1007.2 1006.6 0.2
15/08:30am 29.5 34.3 25.7 80 2.7 NNW 11 15 6 8 1006.9 - 0.2
15/08:00am 28.8 33.5 25.6 83 2.3 N 11 15 6 8 1006.6 - 0.2
15/07:30am 28.1 33.2 25.5 86 1.8 N 9 13 5 7 1006.5 - 0.2
15/07:00am 27.7 33.3 25.7 89 1.4 N 7 11 4 6 1006.3 - 0.2
15/06:30am 27.3 32.7 25.5 90 1.3 N 7 9 4 5 1006.0 - 0.2
15/06:00am 27.1 32.3 25.1 89 1.4 N 7 9 4 5 1005.4 1004.9 0.2
15/05:30am 27.4 32.3 25.2 88 1.5 NNW 9 15 5 8 1005.1 - 0.2
15/05:00am 27.5 32.3 25.1 87 1.7 N 9 13 5 7 1004.5 - 0.2
15/04:30am 27.4 32.3 25.2 88 1.5 N 9 13 5 7 1004.6 - 0.2
15/04:00am 27.2 31.8 24.8 87 1.7 NNW 9 15 5 8 1004.5 - 0.2
15/03:30am 27.6 31.3 24.6 84 2.1 NNW 13 17 7 9 1004.6 - 0.2
15/03:00am 27.7 31.6 24.3 82 2.4 N 11 17 6 9 1004.4 1003.9 0.2
15/02:30am 27.6 32.1 24.0 81 2.5 N 7 9 4 5 1004.9 - 0.2
15/02:00am 27.7 32.1 23.5 78 2.9 N 6 9 3 5 1005.1 - 0.2
15/01:30am 28.0 32.3 23.6 77 3.0 N 7 13 4 7 1005.4 - 0.2
15/01:00am 28.2 31.6 23.3 75 3.4 N 11 17 6 9 1005.3 - 0.2
15/12:30am 28.3 32.3 23.7 76 3.2 NNW 9 13 5 7 1005.1 - 0.2
15/12:00am 28.8 32.5 23.9 75 3.4 NW 11 17 6 9 1005.6 1005.1 0.2
 
Date/Time
CST
Temp
°C
App
Temp
°C
Dew
Point
°C
Rel
Hum
%
Delta-T
°C
Wind Press
QNH
hPa
Press
MSL
hPa
Rain since
9am
mm
Dir  Spd
km/h
Gust
km/h
Spd
kts
Gust
kts
14/11:30pm 28.9 33.2 24.9 79 2.8 NW 11 20 6 11 1005.5 - 0.2
14/11:00pm 29.3 34.2 25.3 79 2.8 WNW 9 15 5 8 1005.8 - 0.2
14/10:30pm 29.8 33.5 25.8 79 2.8 WNW 17 28 9 15 1006.0 - 0.2
14/10:00pm 30.3 34.7 25.6 76 3.3 NW 13 24 7 13 1005.8 - 0.2
14/09:30pm 31.2 35.1 24.8 69 4.5 WNW 13 24 7 13 1005.4 - 0.2
14/09:00pm 31.6 35.7 24.5 66 5.0 WNW 11 20 6 11 1005.0 1004.5 0.2
14/08:30pm 32.1 36.0 24.9 65 5.1 NW 13 17 7 9 1004.4 - 0.2
14/08:00pm 32.6 36.3 24.6 62 5.6 WNW 13 19 7 10 1004.1 - 0.2

Other Formats:

Comma delimited format used in spreadsheet applications
http://www.bom.gov.au/fwo/IDD60801/IDD60801.94130.axf

JavaScript Object Notation format (JSON) in row-major order
http://www.bom.gov.au/fwo/IDD60801/IDD60801.94130.json